< < Back
Terminal Aerodrome Forecast


Current Version              Previous Versions:   1  2  3  4  5  6  7  8  9  

Terminal Aerodrome Forecast

113
FTUS42 KTAE 010524
TAFABY
TAF
KABY 010524Z 0106/0206 00000KT P6SM SKC
     FM011400 25005KT P6SM SCT040
     FM012000 27011KT P6SM VCTS BKN040CB
     FM020000 24005KT P6SM BKN250=

Latest METAR

977
SAUS70 KWBC 020800 RRF
MTRABY
METAR KABY 020753Z AUTO 22005KT 10SM CLR 24/22 A3004 RMK AO2 SLP170
T02440222


USA.gov is the U.S. government's official web portal to all federal, state and local government web resources and services.